sensor_id;sensor_type;location;lat;lon;timestamp;P1;durP1;ratioP1;P2;durP2;ratioP2
22603;SDS011;11469;49.024;8.246;2023-05-14T00:02:20;8.48;;;5.57;;
22603;SDS011;11469;49.024;8.246;2023-05-14T00:04:45;10.27;;;6.20;;
22603;SDS011;11469;49.024;8.246;2023-05-14T00:07:11;8.90;;;6.70;;
22603;SDS011;11469;49.024;8.246;2023-05-14T00:09:36;6.97;;;6.25;;
22603;SDS011;11469;49.024;8.246;2023-05-14T00:12:02;12.68;;;6.43;;
22603;SDS011;11469;49.024;8.246;2023-05-14T00:14:27;10.18;;;5.85;;
22603;SDS011;11469;49.024;8.246;2023-05-14T00:16:53;8.13;;;5.32;;
22603;SDS011;11469;49.024;8.246;2023-05-14T00:19:18;9.80;;;5.95;;
22603;SDS011;11469;49.024;8.246;2023-05-14T00:21:44;7.30;;;5.57;;
22603;SDS011;11469;49.024;8.246;2023-05-14T00:24:09;9.95;;;5.65;;
22603;SDS011;11469;49.024;8.246;2023-05-14T00:26:34;11.07;;;6.00;;
22603;SDS011;11469;49.024;8.246;2023-05-14T00:29:00;6.82;;;5.78;;
22603;SDS011;11469;49.024;8.246;2023-05-14T00:31:25;9.00;;;5.82;;
22603;SDS011;11469;49.024;8.246;2023-05-14T00:33:51;7.32;;;5.80;;
22603;SDS011;11469;49.024;8.246;2023-05-14T00:36:16;8.88;;;5.13;;
22603;SDS011;11469;49.024;8.246;2023-05-14T00:38:41;6.07;;;5.18;;
22603;SDS011;11469;49.024;8.246;2023-05-14T00:41:07;6.25;;;5.38;;
22603;SDS011;11469;49.024;8.246;2023-05-14T00:43:32;9.23;;;6.93;;
22603;SDS011;11469;49.024;8.246;2023-05-14T00:45:57;8.45;;;6.45;;
22603;SDS011;11469;49.024;8.246;2023-05-14T00:48:23;7.68;;;5.90;;
22603;SDS011;11469;49.024;8.246;2023-05-14T00:50:49;9.32;;;6.20;;
22603;SDS011;11469;49.024;8.246;2023-05-14T00:53:16;6.82;;;5.80;;
22603;SDS011;11469;49.024;8.246;2023-05-14T00:55:42;15.18;;;6.25;;
22603;SDS011;11469;49.024;8.246;2023-05-14T00:58:11;9.98;;;6.68;;
22603;SDS011;11469;49.024;8.246;2023-05-14T01:00:38;14.35;;;6.57;;
22603;SDS011;11469;49.024;8.246;2023-05-14T01:03:04;9.43;;;6.32;;
22603;SDS011;11469;49.024;8.246;2023-05-14T01:05:36;10.95;;;6.82;;
22603;SDS011;11469;49.024;8.246;2023-05-14T01:08:13;10.25;;;6.70;;
22603;SDS011;11469;49.024;8.246;2023-05-14T01:11:09;9.73;;;6.55;;
22603;SDS011;11469;49.024;8.246;2023-05-14T01:16:12;9.40;;;6.28;;
22603;SDS011;11469;49.024;8.246;2023-05-14T01:18:42;11.02;;;7.20;;
22603;SDS011;11469;49.024;8.246;2023-05-14T01:24:05;11.50;;;7.80;;
22603;SDS011;11469;49.024;8.246;2023-05-14T01:26:31;9.48;;;7.22;;
22603;SDS011;11469;49.024;8.246;2023-05-14T01:29:01;9.73;;;7.03;;
22603;SDS011;11469;49.024;8.246;2023-05-14T01:31:35;9.90;;;7.32;;
22603;SDS011;11469;49.024;8.246;2023-05-14T01:34:04;9.48;;;7.25;;
22603;SDS011;11469;49.024;8.246;2023-05-14T01:36:31;11.43;;;7.78;;
22603;SDS011;11469;49.024;8.246;2023-05-14T01:38:58;11.88;;;7.50;;
22603;SDS011;11469;49.024;8.246;2023-05-14T01:41:25;9.13;;;6.97;;
22603;SDS011;11469;49.024;8.246;2023-05-14T01:43:51;10.27;;;7.95;;
22603;SDS011;11469;49.024;8.246;2023-05-14T01:46:17;12.00;;;7.47;;
22603;SDS011;11469;49.024;8.246;2023-05-14T01:48:43;12.07;;;7.35;;
22603;SDS011;11469;49.024;8.246;2023-05-14T01:51:09;11.43;;;7.32;;
22603;SDS011;11469;49.024;8.246;2023-05-14T01:53:34;10.48;;;7.60;;
22603;SDS011;11469;49.024;8.246;2023-05-14T01:55:59;9.55;;;7.07;;
22603;SDS011;11469;49.024;8.246;2023-05-14T01:58:25;10.98;;;6.82;;
22603;SDS011;11469;49.024;8.246;2023-05-14T02:00:50;12.32;;;7.93;;
22603;SDS011;11469;49.024;8.246;2023-05-14T02:03:16;9.80;;;7.28;;
22603;SDS011;11469;49.024;8.246;2023-05-14T02:05:41;12.18;;;7.43;;
22603;SDS011;11469;49.024;8.246;2023-05-14T02:08:06;11.25;;;7.82;;
22603;SDS011;11469;49.024;8.246;2023-05-14T02:10:32;10.73;;;8.25;;
22603;SDS011;11469;49.024;8.246;2023-05-14T02:12:57;14.23;;;7.80;;
22603;SDS011;11469;49.024;8.246;2023-05-14T02:15:23;9.13;;;7.00;;
22603;SDS011;11469;49.024;8.246;2023-05-14T02:17:48;10.13;;;6.63;;
22603;SDS011;11469;49.024;8.246;2023-05-14T02:20:14;12.00;;;7.03;;
22603;SDS011;11469;49.024;8.246;2023-05-14T02:22:39;9.93;;;7.30;;
22603;SDS011;11469;49.024;8.246;2023-05-14T02:25:09;8.35;;;6.20;;
22603;SDS011;11469;49.024;8.246;2023-05-14T02:27:35;8.40;;;6.45;;
22603;SDS011;11469;49.024;8.246;2023-05-14T02:30:00;9.15;;;6.72;;
22603;SDS011;11469;49.024;8.246;2023-05-14T02:32:26;16.25;;;6.60;;
22603;SDS011;11469;49.024;8.246;2023-05-14T02:34:52;9.73;;;6.40;;
22603;SDS011;11469;49.024;8.246;2023-05-14T02:37:17;10.27;;;6.43;;
22603;SDS011;11469;49.024;8.246;2023-05-14T02:39:42;10.63;;;6.15;;
22603;SDS011;11469;49.024;8.246;2023-05-14T02:42:08;10.35;;;6.25;;
22603;SDS011;11469;49.024;8.246;2023-05-14T02:44:33;11.07;;;6.10;;
22603;SDS011;11469;49.024;8.246;2023-05-14T02:46:58;13.25;;;6.72;;
22603;SDS011;11469;49.024;8.246;2023-05-14T02:49:24;8.95;;;6.75;;
22603;SDS011;11469;49.024;8.246;2023-05-14T02:51:49;17.50;;;6.85;;
22603;SDS011;11469;49.024;8.246;2023-05-14T02:54:15;8.60;;;6.20;;
22603;SDS011;11469;49.024;8.246;2023-05-14T02:56:40;10.50;;;6.93;;
22603;SDS011;11469;49.024;8.246;2023-05-14T02:59:06;9.43;;;7.05;;
22603;SDS011;11469;49.024;8.246;2023-05-14T03:01:31;9.23;;;7.45;;
22603;SDS011;11469;49.024;8.246;2023-05-14T03:03:56;10.27;;;7.15;;
22603;SDS011;11469;49.024;8.246;2023-05-14T03:06:22;13.07;;;7.43;;
22603;SDS011;11469;49.024;8.246;2023-05-14T03:08:47;12.75;;;8.45;;
22603;SDS011;11469;49.024;8.246;2023-05-14T03:11:13;9.15;;;7.07;;
22603;SDS011;11469;49.024;8.246;2023-05-14T03:13:38;12.80;;;8.05;;
22603;SDS011;11469;49.024;8.246;2023-05-14T03:16:03;10.57;;;7.72;;
22603;SDS011;11469;49.024;8.246;2023-05-14T03:18:29;9.93;;;7.28;;
22603;SDS011;11469;49.024;8.246;2023-05-14T03:20:57;10.95;;;7.45;;
22603;SDS011;11469;49.024;8.246;2023-05-14T03:23:22;9.07;;;6.40;;
22603;SDS011;11469;49.024;8.246;2023-05-14T03:25:48;10.20;;;7.68;;
22603;SDS011;11469;49.024;8.246;2023-05-14T03:28:13;10.10;;;7.72;;
22603;SDS011;11469;49.024;8.246;2023-05-14T03:30:38;10.65;;;7.55;;
22603;SDS011;11469;49.024;8.246;2023-05-14T03:33:04;12.00;;;7.68;;
22603;SDS011;11469;49.024;8.246;2023-05-14T03:35:30;10.40;;;7.20;;
22603;SDS011;11469;49.024;8.246;2023-05-14T03:37:55;11.88;;;7.45;;
22603;SDS011;11469;49.024;8.246;2023-05-14T03:40:23;8.50;;;7.57;;
22603;SDS011;11469;49.024;8.246;2023-05-14T03:42:49;13.13;;;7.60;;
22603;SDS011;11469;49.024;8.246;2023-05-14T03:45:14;9.82;;;7.40;;
22603;SDS011;11469;49.024;8.246;2023-05-14T03:47:40;19.63;;;8.50;;
22603;SDS011;11469;49.024;8.246;2023-05-14T03:50:06;13.50;;;8.55;;
22603;SDS011;11469;49.024;8.246;2023-05-14T03:52:32;11.80;;;8.10;;
22603;SDS011;11469;49.024;8.246;2023-05-14T03:54:57;21.08;;;8.65;;
22603;SDS011;11469;49.024;8.246;2023-05-14T03:57:23;10.25;;;7.75;;
22603;SDS011;11469;49.024;8.246;2023-05-14T03:59:48;12.93;;;7.72;;
22603;SDS011;11469;49.024;8.246;2023-05-14T04:02:14;10.85;;;7.60;;
22603;SDS011;11469;49.024;8.246;2023-05-14T04:04:39;11.77;;;8.32;;
22603;SDS011;11469;49.024;8.246;2023-05-14T04:07:06;11.75;;;7.80;;
22603;SDS011;11469;49.024;8.246;2023-05-14T04:09:32;9.85;;;7.88;;
22603;SDS011;11469;49.024;8.246;2023-05-14T04:11:58;8.57;;;6.45;;
22603;SDS011;11469;49.024;8.246;2023-05-14T04:14:23;9.70;;;6.90;;
22603;SDS011;11469;49.024;8.246;2023-05-14T04:16:49;9.52;;;7.03;;
22603;SDS011;11469;49.024;8.246;2023-05-14T04:19:14;10.20;;;6.80;;
22603;SDS011;11469;49.024;8.246;2023-05-14T04:21:39;16.15;;;7.22;;
22603;SDS011;11469;49.024;8.246;2023-05-14T04:24:05;16.30;;;6.63;;
22603;SDS011;11469;49.024;8.246;2023-05-14T04:26:30;11.32;;;7.15;;
22603;SDS011;11469;49.024;8.246;2023-05-14T04:28:56;9.95;;;6.05;;
22603;SDS011;11469;49.024;8.246;2023-05-14T04:31:22;9.98;;;6.43;;
22603;SDS011;11469;49.024;8.246;2023-05-14T04:33:47;7.85;;;6.25;;
22603;SDS011;11469;49.024;8.246;2023-05-14T04:36:13;9.48;;;6.38;;
22603;SDS011;11469;49.024;8.246;2023-05-14T04:38:38;10.60;;;6.45;;
22603;SDS011;11469;49.024;8.246;2023-05-14T04:41:05;7.82;;;5.95;;
22603;SDS011;11469;49.024;8.246;2023-05-14T04:43:31;9.27;;;6.13;;
22603;SDS011;11469;49.024;8.246;2023-05-14T04:45:56;12.95;;;6.43;;
22603;SDS011;11469;49.024;8.246;2023-05-14T04:48:21;11.95;;;6.15;;
22603;SDS011;11469;49.024;8.246;2023-05-14T04:50:47;9.15;;;5.53;;
22603;SDS011;11469;49.024;8.246;2023-05-14T04:53:12;9.13;;;4.93;;
22603;SDS011;11469;49.024;8.246;2023-05-14T04:55:37;7.25;;;4.88;;
22603;SDS011;11469;49.024;8.246;2023-05-14T04:58:03;6.57;;;4.85;;
22603;SDS011;11469;49.024;8.246;2023-05-14T05:00:29;9.10;;;4.88;;
22603;SDS011;11469;49.024;8.246;2023-05-14T05:02:54;7.25;;;4.82;;
22603;SDS011;11469;49.024;8.246;2023-05-14T05:05:20;6.22;;;4.57;;
22603;SDS011;11469;49.024;8.246;2023-05-14T05:07:45;7.18;;;4.97;;
22603;SDS011;11469;49.024;8.246;2023-05-14T05:10:11;7.47;;;4.88;;
22603;SDS011;11469;49.024;8.246;2023-05-14T05:12:37;7.50;;;5.40;;
22603;SDS011;11469;49.024;8.246;2023-05-14T05:15:02;10.30;;;5.25;;
22603;SDS011;11469;49.024;8.246;2023-05-14T05:17:28;8.20;;;6.10;;
22603;SDS011;11469;49.024;8.246;2023-05-14T05:19:54;8.82;;;4.80;;
22603;SDS011;11469;49.024;8.246;2023-05-14T05:22:20;7.60;;;5.43;;
22603;SDS011;11469;49.024;8.246;2023-05-14T05:24:45;8.32;;;5.80;;
22603;SDS011;11469;49.024;8.246;2023-05-14T05:27:11;12.15;;;5.43;;
22603;SDS011;11469;49.024;8.246;2023-05-14T05:29:37;9.35;;;5.35;;
22603;SDS011;11469;49.024;8.246;2023-05-14T05:32:02;7.50;;;5.13;;
22603;SDS011;11469;49.024;8.246;2023-05-14T05:34:27;7.13;;;5.40;;
22603;SDS011;11469;49.024;8.246;2023-05-14T05:36:53;7.47;;;5.50;;
22603;SDS011;11469;49.024;8.246;2023-05-14T05:39:18;7.50;;;5.18;;
22603;SDS011;11469;49.024;8.246;2023-05-14T05:41:44;6.60;;;4.93;;
22603;SDS011;11469;49.024;8.246;2023-05-14T05:44:09;11.15;;;5.15;;
22603;SDS011;11469;49.024;8.246;2023-05-14T05:46:34;8.20;;;5.40;;
22603;SDS011;11469;49.024;8.246;2023-05-14T05:49:00;7.25;;;5.18;;
22603;SDS011;11469;49.024;8.246;2023-05-14T05:51:25;7.53;;;5.43;;
22603;SDS011;11469;49.024;8.246;2023-05-14T05:53:51;8.63;;;6.05;;
22603;SDS011;11469;49.024;8.246;2023-05-14T05:56:16;6.85;;;5.25;;
22603;SDS011;11469;49.024;8.246;2023-05-14T05:58:41;9.82;;;5.55;;
22603;SDS011;11469;49.024;8.246;2023-05-14T06:01:07;9.73;;;5.80;;
22603;SDS011;11469;49.024;8.246;2023-05-14T06:03:32;9.30;;;5.75;;
22603;SDS011;11469;49.024;8.246;2023-05-14T06:05:58;8.20;;;5.90;;
22603;SDS011;11469;49.024;8.246;2023-05-14T06:08:23;8.23;;;5.90;;
22603;SDS011;11469;49.024;8.246;2023-05-14T06:10:48;8.50;;;6.00;;
22603;SDS011;11469;49.024;8.246;2023-05-14T06:13:14;7.25;;;5.72;;
22603;SDS011;11469;49.024;8.246;2023-05-14T06:15:39;8.43;;;5.97;;
22603;SDS011;11469;49.024;8.246;2023-05-14T06:18:04;9.05;;;5.82;;
22603;SDS011;11469;49.024;8.246;2023-05-14T06:20:30;9.00;;;5.80;;
22603;SDS011;11469;49.024;8.246;2023-05-14T06:22:55;10.50;;;6.63;;
22603;SDS011;11469;49.024;8.246;2023-05-14T06:25:21;8.63;;;6.20;;
22603;SDS011;11469;49.024;8.246;2023-05-14T06:27:46;10.48;;;6.43;;
22603;SDS011;11469;49.024;8.246;2023-05-14T06:30:12;10.38;;;6.28;;
22603;SDS011;11469;49.024;8.246;2023-05-14T06:32:38;8.90;;;6.63;;
22603;SDS011;11469;49.024;8.246;2023-05-14T06:35:03;9.63;;;6.07;;
22603;SDS011;11469;49.024;8.246;2023-05-14T06:37:29;9.25;;;6.28;;
22603;SDS011;11469;49.024;8.246;2023-05-14T06:39:54;10.55;;;6.60;;
22603;SDS011;11469;49.024;8.246;2023-05-14T06:42:20;9.77;;;6.20;;
22603;SDS011;11469;49.024;8.246;2023-05-14T06:44:45;10.18;;;6.25;;
22603;SDS011;11469;49.024;8.246;2023-05-14T06:47:10;9.88;;;7.00;;
22603;SDS011;11469;49.024;8.246;2023-05-14T06:49:36;8.77;;;5.97;;
22603;SDS011;11469;49.024;8.246;2023-05-14T06:52:02;8.63;;;6.22;;
22603;SDS011;11469;49.024;8.246;2023-05-14T06:54:27;7.70;;;6.22;;
22603;SDS011;11469;49.024;8.246;2023-05-14T06:56:53;8.57;;;6.70;;
22603;SDS011;11469;49.024;8.246;2023-05-14T06:59:18;9.93;;;6.55;;
22603;SDS011;11469;49.024;8.246;2023-05-14T07:01:44;9.73;;;6.38;;
22603;SDS011;11469;49.024;8.246;2023-05-14T07:04:09;10.07;;;7.13;;
22603;SDS011;11469;49.024;8.246;2023-05-14T07:06:35;8.40;;;6.20;;
22603;SDS011;11469;49.024;8.246;2023-05-14T07:09:00;15.07;;;6.95;;
22603;SDS011;11469;49.024;8.246;2023-05-14T07:11:26;9.63;;;6.55;;
22603;SDS011;11469;49.024;8.246;2023-05-14T07:13:51;11.68;;;6.65;;
22603;SDS011;11469;49.024;8.246;2023-05-14T07:16:16;9.68;;;6.43;;
22603;SDS011;11469;49.024;8.246;2023-05-14T07:18:43;12.27;;;6.32;;
22603;SDS011;11469;49.024;8.246;2023-05-14T07:21:09;9.55;;;6.93;;
22603;SDS011;11469;49.024;8.246;2023-05-14T07:23:35;11.93;;;7.07;;
22603;SDS011;11469;49.024;8.246;2023-05-14T07:26:01;9.82;;;7.10;;
22603;SDS011;11469;49.024;8.246;2023-05-14T07:28:27;15.45;;;6.80;;
22603;SDS011;11469;49.024;8.246;2023-05-14T07:30:52;10.15;;;6.97;;
22603;SDS011;11469;49.024;8.246;2023-05-14T07:33:18;11.65;;;7.00;;
22603;SDS011;11469;49.024;8.246;2023-05-14T07:35:43;8.88;;;6.82;;
22603;SDS011;11469;49.024;8.246;2023-05-14T07:38:08;10.13;;;7.05;;
22603;SDS011;11469;49.024;8.246;2023-05-14T07:40:34;10.88;;;7.03;;
22603;SDS011;11469;49.024;8.246;2023-05-14T07:42:59;12.02;;;6.93;;
22603;SDS011;11469;49.024;8.246;2023-05-14T07:45:25;14.73;;;7.07;;
22603;SDS011;11469;49.024;8.246;2023-05-14T07:47:50;11.52;;;7.95;;
22603;SDS011;11469;49.024;8.246;2023-05-14T07:50:16;10.88;;;7.07;;
22603;SDS011;11469;49.024;8.246;2023-05-14T07:52:42;10.43;;;7.75;;
22603;SDS011;11469;49.024;8.246;2023-05-14T07:55:08;11.35;;;7.35;;
22603;SDS011;11469;49.024;8.246;2023-05-14T07:57:34;13.55;;;7.80;;
22603;SDS011;11469;49.024;8.246;2023-05-14T07:59:59;12.38;;;9.13;;
22603;SDS011;11469;49.024;8.246;2023-05-14T08:02:25;12.43;;;8.40;;
22603;SDS011;11469;49.024;8.246;2023-05-14T08:04:50;9.10;;;6.60;;
22603;SDS011;11469;49.024;8.246;2023-05-14T08:07:16;9.23;;;6.10;;
22603;SDS011;11469;49.024;8.246;2023-05-14T08:09:41;12.05;;;6.13;;
22603;SDS011;11469;49.024;8.246;2023-05-14T08:12:06;7.85;;;5.82;;
22603;SDS011;11469;49.024;8.246;2023-05-14T08:14:32;11.63;;;7.20;;
22603;SDS011;11469;49.024;8.246;2023-05-14T08:16:58;12.98;;;7.35;;
22603;SDS011;11469;49.024;8.246;2023-05-14T08:19:23;12.10;;;7.82;;
22603;SDS011;11469;49.024;8.246;2023-05-14T08:21:49;12.30;;;7.13;;
22603;SDS011;11469;49.024;8.246;2023-05-14T08:24:15;11.60;;;6.75;;
22603;SDS011;11469;49.024;8.246;2023-05-14T08:26:41;11.15;;;7.20;;
22603;SDS011;11469;49.024;8.246;2023-05-14T08:29:06;11.25;;;7.00;;
22603;SDS011;11469;49.024;8.246;2023-05-14T08:31:32;9.52;;;7.45;;
22603;SDS011;11469;49.024;8.246;2023-05-14T08:33:57;10.68;;;7.38;;
22603;SDS011;11469;49.024;8.246;2023-05-14T08:36:23;9.70;;;7.70;;
22603;SDS011;11469;49.024;8.246;2023-05-14T08:38:48;12.35;;;7.45;;
22603;SDS011;11469;49.024;8.246;2023-05-14T08:41:14;14.57;;;7.18;;
22603;SDS011;11469;49.024;8.246;2023-05-14T08:43:44;9.57;;;7.05;;
22603;SDS011;11469;49.024;8.246;2023-05-14T08:46:13;11.30;;;7.20;;
22603;SDS011;11469;49.024;8.246;2023-05-14T08:48:41;7.85;;;5.68;;
22603;SDS011;11469;49.024;8.246;2023-05-14T08:51:08;12.52;;;6.80;;
22603;SDS011;11469;49.024;8.246;2023-05-14T08:53:33;14.15;;;7.30;;
22603;SDS011;11469;49.024;8.246;2023-05-14T08:56:02;10.48;;;7.28;;
22603;SDS011;11469;49.024;8.246;2023-05-14T08:58:29;10.75;;;7.22;;
22603;SDS011;11469;49.024;8.246;2023-05-14T09:00:54;11.68;;;6.65;;
22603;SDS011;11469;49.024;8.246;2023-05-14T09:03:20;9.95;;;6.13;;
22603;SDS011;11469;49.024;8.246;2023-05-14T09:05:47;12.13;;;6.57;;
22603;SDS011;11469;49.024;8.246;2023-05-14T09:08:15;10.60;;;6.32;;
22603;SDS011;11469;49.024;8.246;2023-05-14T09:10:40;9.90;;;6.28;;
22603;SDS011;11469;49.024;8.246;2023-05-14T09:13:06;8.77;;;6.25;;
22603;SDS011;11469;49.024;8.246;2023-05-14T09:15:34;8.32;;;6.10;;
22603;SDS011;11469;49.024;8.246;2023-05-14T09:18:03;10.85;;;6.85;;
22603;SDS011;11469;49.024;8.246;2023-05-14T09:20:29;10.43;;;7.20;;
22603;SDS011;11469;49.024;8.246;2023-05-14T09:22:56;8.43;;;5.13;;
22603;SDS011;11469;49.024;8.246;2023-05-14T09:25:28;8.73;;;5.40;;
22603;SDS011;11469;49.024;8.246;2023-05-14T09:27:56;8.32;;;5.47;;
22603;SDS011;11469;49.024;8.246;2023-05-14T09:30:22;9.05;;;6.53;;
22603;SDS011;11469;49.024;8.246;2023-05-14T09:32:48;7.30;;;5.45;;
22603;SDS011;11469;49.024;8.246;2023-05-14T09:35:18;7.47;;;5.88;;
22603;SDS011;11469;49.024;8.246;2023-05-14T09:37:46;8.07;;;5.00;;
22603;SDS011;11469;49.024;8.246;2023-05-14T09:40:17;7.03;;;4.22;;
22603;SDS011;11469;49.024;8.246;2023-05-14T09:42:43;6.22;;;4.18;;
22603;SDS011;11469;49.024;8.246;2023-05-14T09:45:09;6.63;;;3.75;;
22603;SDS011;11469;49.024;8.246;2023-05-14T09:47:38;6.40;;;4.25;;
22603;SDS011;11469;49.024;8.246;2023-05-14T09:50:04;6.40;;;4.03;;
22603;SDS011;11469;49.024;8.246;2023-05-14T09:52:30;6.95;;;4.20;;
22603;SDS011;11469;49.024;8.246;2023-05-14T09:54:56;7.25;;;4.47;;
22603;SDS011;11469;49.024;8.246;2023-05-14T09:57:21;5.53;;;4.03;;
22603;SDS011;11469;49.024;8.246;2023-05-14T09:59:47;5.22;;;4.13;;
22603;SDS011;11469;49.024;8.246;2023-05-14T10:02:20;8.35;;;4.88;;
22603;SDS011;11469;49.024;8.246;2023-05-14T10:04:51;6.38;;;4.32;;
22603;SDS011;11469;49.024;8.246;2023-05-14T10:07:18;6.35;;;4.28;;
22603;SDS011;11469;49.024;8.246;2023-05-14T10:09:56;4.55;;;3.75;;
22603;SDS011;11469;49.024;8.246;2023-05-14T10:12:27;6.07;;;4.15;;
22603;SDS011;11469;49.024;8.246;2023-05-14T10:14:56;4.85;;;3.65;;
22603;SDS011;11469;49.024;8.246;2023-05-14T10:17:28;5.40;;;3.72;;
22603;SDS011;11469;49.024;8.246;2023-05-14T10:19:56;4.60;;;3.25;;
22603;SDS011;11469;49.024;8.246;2023-05-14T10:22:24;4.28;;;3.45;;
22603;SDS011;11469;49.024;8.246;2023-05-14T10:24:55;4.60;;;3.15;;
22603;SDS011;11469;49.024;8.246;2023-05-14T10:27:20;4.40;;;3.33;;
22603;SDS011;11469;49.024;8.246;2023-05-14T10:29:50;4.28;;;3.22;;
22603;SDS011;11469;49.024;8.246;2023-05-14T10:32:20;3.95;;;2.80;;
22603;SDS011;11469;49.024;8.246;2023-05-14T10:34:48;3.10;;;2.20;;
22603;SDS011;11469;49.024;8.246;2023-05-14T10:37:17;8.18;;;3.10;;
22603;SDS011;11469;49.024;8.246;2023-05-14T10:39:46;5.15;;;3.20;;
22603;SDS011;11469;49.024;8.246;2023-05-14T10:42:18;3.15;;;2.15;;
22603;SDS011;11469;49.024;8.246;2023-05-14T10:44:52;4.75;;;3.03;;
22603;SDS011;11469;49.024;8.246;2023-05-14T10:47:23;4.35;;;2.70;;
22603;SDS011;11469;49.024;8.246;2023-05-14T10:49:51;4.72;;;2.95;;
22603;SDS011;11469;49.024;8.246;2023-05-14T10:52:18;4.45;;;3.30;;
22603;SDS011;11469;49.024;8.246;2023-05-14T10:54:55;4.53;;;3.30;;
22603;SDS011;11469;49.024;8.246;2023-05-14T10:57:25;8.63;;;4.22;;
22603;SDS011;11469;49.024;8.246;2023-05-14T10:59:55;8.13;;;5.10;;
22603;SDS011;11469;49.024;8.246;2023-05-14T11:02:28;5.90;;;3.97;;
22603;SDS011;11469;49.024;8.246;2023-05-14T11:04:56;5.50;;;3.83;;
22603;SDS011;11469;49.024;8.246;2023-05-14T11:07:31;4.55;;;3.40;;
22603;SDS011;11469;49.024;8.246;2023-05-14T11:10:08;4.13;;;2.88;;
22603;SDS011;11469;49.024;8.246;2023-05-14T11:12:36;5.65;;;3.78;;
22603;SDS011;11469;49.024;8.246;2023-05-14T11:15:05;4.65;;;3.35;;
22603;SDS011;11469;49.024;8.246;2023-05-14T11:17:33;4.75;;;3.13;;
22603;SDS011;11469;49.024;8.246;2023-05-14T11:20:00;5.40;;;4.05;;
22603;SDS011;11469;49.024;8.246;2023-05-14T11:22:26;9.48;;;4.47;;
22603;SDS011;11469;49.024;8.246;2023-05-14T11:24:51;5.93;;;4.40;;
22603;SDS011;11469;49.024;8.246;2023-05-14T11:27:17;4.60;;;3.55;;
22603;SDS011;11469;49.024;8.246;2023-05-14T11:29:46;5.30;;;3.50;;
22603;SDS011;11469;49.024;8.246;2023-05-14T11:32:13;5.30;;;3.50;;
22603;SDS011;11469;49.024;8.246;2023-05-14T11:34:40;8.77;;;3.63;;
22603;SDS011;11469;49.024;8.246;2023-05-14T11:37:08;6.65;;;4.15;;
22603;SDS011;11469;49.024;8.246;2023-05-14T11:39:35;6.03;;;4.07;;
22603;SDS011;11469;49.024;8.246;2023-05-14T11:42:07;7.15;;;4.35;;
22603;SDS011;11469;49.024;8.246;2023-05-14T11:44:36;5.38;;;4.13;;
22603;SDS011;11469;49.024;8.246;2023-05-14T11:47:02;7.10;;;4.32;;
22603;SDS011;11469;49.024;8.246;2023-05-14T11:49:29;5.90;;;4.28;;
22603;SDS011;11469;49.024;8.246;2023-05-14T11:51:58;8.05;;;3.83;;
22603;SDS011;11469;49.024;8.246;2023-05-14T11:54:25;6.55;;;4.22;;
22603;SDS011;11469;49.024;8.246;2023-05-14T11:56:52;5.97;;;4.00;;
22603;SDS011;11469;49.024;8.246;2023-05-14T11:59:19;6.38;;;4.35;;
22603;SDS011;11469;49.024;8.246;2023-05-14T12:01:45;6.00;;;4.03;;
22603;SDS011;11469;49.024;8.246;2023-05-14T12:04:11;5.20;;;3.97;;
22603;SDS011;11469;49.024;8.246;2023-05-14T12:06:38;7.50;;;3.38;;
22603;SDS011;11469;49.024;8.246;2023-05-14T12:09:04;6.97;;;4.05;;
22603;SDS011;11469;49.024;8.246;2023-05-14T12:11:30;8.25;;;3.55;;
22603;SDS011;11469;49.024;8.246;2023-05-14T12:13:57;5.78;;;3.30;;
22603;SDS011;11469;49.024;8.246;2023-05-14T12:16:23;7.18;;;3.97;;
22603;SDS011;11469;49.024;8.246;2023-05-14T12:18:57;5.60;;;3.58;;
22603;SDS011;11469;49.024;8.246;2023-05-14T12:21:25;5.28;;;4.03;;
22603;SDS011;11469;49.024;8.246;2023-05-14T12:23:55;5.15;;;4.00;;
22603;SDS011;11469;49.024;8.246;2023-05-14T12:26:24;5.38;;;3.42;;
22603;SDS011;11469;49.024;8.246;2023-05-14T12:28:55;9.82;;;4.10;;
22603;SDS011;11469;49.024;8.246;2023-05-14T12:31:34;5.40;;;3.83;;
22603;SDS011;11469;49.024;8.246;2023-05-14T12:34:02;6.40;;;3.83;;
22603;SDS011;11469;49.024;8.246;2023-05-14T12:36:28;5.57;;;3.83;;
22603;SDS011;11469;49.024;8.246;2023-05-14T12:38:59;6.57;;;3.40;;
22603;SDS011;11469;49.024;8.246;2023-05-14T12:41:27;6.80;;;3.58;;
22603;SDS011;11469;49.024;8.246;2023-05-14T12:43:52;7.43;;;3.97;;
22603;SDS011;11469;49.024;8.246;2023-05-14T12:46:18;6.93;;;4.05;;
22603;SDS011;11469;49.024;8.246;2023-05-14T12:48:43;4.93;;;3.70;;
22603;SDS011;11469;49.024;8.246;2023-05-14T12:51:09;5.93;;;3.65;;
22603;SDS011;11469;49.024;8.246;2023-05-14T12:53:34;4.80;;;3.67;;
22603;SDS011;11469;49.024;8.246;2023-05-14T12:56:00;8.10;;;4.00;;
22603;SDS011;11469;49.024;8.246;2023-05-14T12:58:25;7.18;;;3.50;;
22603;SDS011;11469;49.024;8.246;2023-05-14T13:00:50;4.97;;;3.65;;
22603;SDS011;11469;49.024;8.246;2023-05-14T13:03:16;5.40;;;3.55;;
22603;SDS011;11469;49.024;8.246;2023-05-14T13:05:41;6.57;;;4.05;;
22603;SDS011;11469;49.024;8.246;2023-05-14T13:08:07;9.50;;;3.47;;
22603;SDS011;11469;49.024;8.246;2023-05-14T13:10:33;4.60;;;3.20;;
22603;SDS011;11469;49.024;8.246;2023-05-14T13:12:59;6.65;;;4.03;;
22603;SDS011;11469;49.024;8.246;2023-05-14T13:15:26;4.15;;;3.10;;
22603;SDS011;11469;49.024;8.246;2023-05-14T13:17:52;4.45;;;3.40;;
22603;SDS011;11469;49.024;8.246;2023-05-14T13:20:17;3.78;;;3.08;;
22603;SDS011;11469;49.024;8.246;2023-05-14T13:22:42;4.20;;;3.22;;
22603;SDS011;11469;49.024;8.246;2023-05-14T13:25:08;4.28;;;2.80;;
22603;SDS011;11469;49.024;8.246;2023-05-14T13:27:34;5.95;;;2.85;;
22603;SDS011;11469;49.024;8.246;2023-05-14T13:30:00;7.60;;;3.78;;
22603;SDS011;11469;49.024;8.246;2023-05-14T13:32:29;5.25;;;3.80;;
22603;SDS011;11469;49.024;8.246;2023-05-14T13:34:54;5.57;;;3.75;;
22603;SDS011;11469;49.024;8.246;2023-05-14T13:37:20;6.47;;;3.22;;
22603;SDS011;11469;49.024;8.246;2023-05-14T13:39:45;4.80;;;3.00;;
22603;SDS011;11469;49.024;8.246;2023-05-14T13:42:11;9.55;;;3.83;;
22603;SDS011;11469;49.024;8.246;2023-05-14T13:44:36;5.43;;;2.63;;
22603;SDS011;11469;49.024;8.246;2023-05-14T13:47:01;4.38;;;3.00;;
22603;SDS011;11469;49.024;8.246;2023-05-14T13:49:27;4.03;;;3.00;;
22603;SDS011;11469;49.024;8.246;2023-05-14T13:51:52;5.45;;;3.20;;
22603;SDS011;11469;49.024;8.246;2023-05-14T13:54:17;3.60;;;3.20;;
22603;SDS011;11469;49.024;8.246;2023-05-14T13:56:43;6.00;;;3.53;;
22603;SDS011;11469;49.024;8.246;2023-05-14T13:59:08;5.50;;;3.13;;
22603;SDS011;11469;49.024;8.246;2023-05-14T14:01:35;3.58;;;2.80;;
22603;SDS011;11469;49.024;8.246;2023-05-14T14:04:00;4.25;;;2.83;;
22603;SDS011;11469;49.024;8.246;2023-05-14T14:06:25;4.63;;;3.17;;
22603;SDS011;11469;49.024;8.246;2023-05-14T14:08:51;5.93;;;3.30;;
22603;SDS011;11469;49.024;8.246;2023-05-14T14:11:17;4.88;;;3.17;;
22603;SDS011;11469;49.024;8.246;2023-05-14T14:13:42;4.43;;;2.90;;
22603;SDS011;11469;49.024;8.246;2023-05-14T14:16:08;3.00;;;2.47;;
22603;SDS011;11469;49.024;8.246;2023-05-14T14:18:34;3.20;;;2.67;;
22603;SDS011;11469;49.024;8.246;2023-05-14T14:21:00;4.13;;;2.88;;
22603;SDS011;11469;49.024;8.246;2023-05-14T14:23:25;3.25;;;2.42;;
22603;SDS011;11469;49.024;8.246;2023-05-14T14:25:51;3.60;;;2.60;;
22603;SDS011;11469;49.024;8.246;2023-05-14T14:28:16;5.40;;;2.95;;
22603;SDS011;11469;49.024;8.246;2023-05-14T14:30:42;7.53;;;3.30;;
22603;SDS011;11469;49.024;8.246;2023-05-14T14:33:08;5.10;;;3.22;;
22603;SDS011;11469;49.024;8.246;2023-05-14T14:35:33;8.43;;;2.78;;
22603;SDS011;11469;49.024;8.246;2023-05-14T14:37:59;3.95;;;2.88;;
22603;SDS011;11469;49.024;8.246;2023-05-14T14:40:25;7.70;;;3.50;;
22603;SDS011;11469;49.024;8.246;2023-05-14T14:42:50;4.53;;;3.08;;
22603;SDS011;11469;49.024;8.246;2023-05-14T14:45:16;4.57;;;3.25;;